Time;durP1;ratioP1;P1;durP2;ratioP2;P2;SDS_P1;SDS_P2;PMS_P1;PMS_P2;Temp;Humidity;BMP_temperature;BMP_pressure;BME280_temperature;BME280_humidity;BME280_pressure;Samples;Min_cycle;Max_cycle;Signal;HPM_P1;HPM_P2
2021/07/06 00:02:11;;;;;;;6.65;5.50;;;;;;;21.58;78.53;99812.50;1744870;82;21398;-77
2021/07/06 00:04:38;;;;;;;6.00;5.00;;;;;;;21.57;78.80;99809.53;1744647;82;21003;-78
2021/07/06 00:07:06;;;;;;;7.78;5.67;;;;;;;21.57;78.87;99813.53;1744635;82;20925;-78
2021/07/06 00:09:34;;;;;;;5.55;5.05;;;;;;;21.56;78.80;99809.19;1744573;80;20905;-77
2021/07/06 00:12:01;;;;;;;5.53;4.55;;;;;;;21.55;78.95;99804.88;1744683;81;20865;-78
2021/07/06 00:14:29;;;;;;;7.03;4.95;;;;;;;21.55;78.97;99815.55;1744656;80;21546;-78
2021/07/06 00:16:57;;;;;;;7.50;5.05;;;;;;;21.52;79.04;99816.23;1744695;81;20872;-78
2021/07/06 00:19:24;;;;;;;7.58;5.55;;;;;;;21.51;78.98;99825.75;1745125;82;20937;-78
2021/07/06 00:21:51;;;;;;;8.75;6.28;;;;;;;21.50;79.22;99818.77;1744669;81;20944;-78
2021/07/06 00:24:18;;;;;;;7.92;5.25;;;;;;;21.49;79.28;99823.77;1744745;81;20892;-78
2021/07/06 00:26:45;;;;;;;6.28;4.75;;;;;;;21.48;79.28;99821.61;1744744;82;22160;-78
2021/07/06 00:29:12;;;;;;;6.12;5.35;;;;;;;21.47;79.29;99825.79;1744945;82;20973;-76
2021/07/06 00:31:38;;;;;;;5.83;5.25;;;;;;;21.46;79.40;99826.81;1744570;82;20908;-78
2021/07/06 00:34:05;;;;;;;7.95;5.05;;;;;;;21.44;79.49;99825.66;1745140;82;20940;-77
2021/07/06 00:36:32;;;;;;;6.28;5.05;;;;;;;21.44;79.53;99827.50;1744741;82;20968;-78
2021/07/06 00:39:00;;;;;;;7.62;5.47;;;;;;;21.42;79.59;99825.52;1744693;81;21089;-79
2021/07/06 00:41:28;;;;;;;6.80;4.97;;;;;;;21.42;79.84;99818.84;1744560;81;20881;-80
2021/07/06 00:43:56;;;;;;;7.97;5.85;;;;;;;21.42;79.88;99821.00;1708874;82;20940;-80
2021/07/06 00:46:22;;;;;;;5.53;4.97;;;;;;;21.43;80.09;99821.34;1708948;82;20881;-82
2021/07/06 00:48:50;;;;;;;6.53;5.20;;;;;;;21.42;80.00;99818.33;1708970;84;20920;-80
2021/07/06 00:51:17;;;;;;;5.97;4.65;;;;;;;21.41;80.15;99812.69;1708987;84;21531;-80
2021/07/06 00:53:44;;;;;;;5.30;4.80;;;;;;;21.41;80.18;99810.02;1708829;84;20896;-80
2021/07/06 00:56:11;;;;;;;5.37;4.87;;;;;;;21.42;80.22;99810.84;1709104;84;20892;-81
2021/07/06 00:58:39;;;;;;;4.97;4.35;;;;;;;21.42;80.22;99806.33;1708761;84;20975;-83
2021/07/06 01:01:05;;;;;;;8.70;4.95;;;;;;;21.42;80.27;99809.51;1708921;82;20920;-82
2021/07/06 01:03:33;;;;;;;5.05;4.30;;;;;;;21.42;80.23;99813.52;1709031;84;21109;-82
2021/07/06 01:06:00;;;;;;;6.95;4.72;;;;;;;21.42;80.33;99809.00;1709081;84;21025;-80
2021/07/06 01:08:28;;;;;;;9.08;5.03;;;;;;;21.44;80.31;99811.49;1708955;84;21038;-81
2021/07/06 01:10:56;;;;;;;5.97;5.30;;;;;;;21.46;80.34;99816.96;1708777;82;20920;-81
2021/07/06 01:13:22;;;;;;;6.80;5.78;;;;;;;21.49;80.29;99817.09;1680494;84;20893;-80
2021/07/06 01:15:49;;;;;;;8.68;5.42;;;;;;;21.51;80.23;99821.75;1709020;82;21475;-82
2021/07/06 01:18:17;;;;;;;10.03;6.08;;;;;;;21.52;80.18;99824.24;1708771;84;20884;-80
2021/07/06 01:20:51;;;;;;;8.40;6.15;;;;;;;21.51;80.16;99823.91;1708796;84;20888;-77
2021/07/06 01:23:21;;;;;;;;;;;;;;;21.50;80.17;99824.93;1711338;82;20884;-78
2021/07/06 01:25:49;;;;;;;10.72;7.03;;;;;;;21.50;80.24;99833.45;1695721;84;20122;-78
2021/07/06 01:28:16;;;;;;;7.30;6.22;;;;;;;21.47;80.34;99833.28;1695517;84;21531;-77
2021/07/06 01:30:43;;;;;;;7.12;6.45;;;;;;;21.47;80.37;99837.28;1708880;83;20921;-77
2021/07/06 01:33:10;;;;;;;9.10;6.85;;;;;;;21.47;80.38;99831.13;1708607;83;21383;-75
2021/07/06 01:35:37;;;;;;;7.62;6.17;;;;;;;21.46;80.44;99834.81;1708730;83;20913;-74
2021/07/06 01:38:05;;;;;;;7.08;6.33;;;;;;;21.47;80.47;99837.79;1708507;84;21486;-77
2021/07/06 01:40:32;;;;;;;8.10;6.30;;;;;;;21.45;80.47;99837.96;1709002;84;21123;-77
2021/07/06 01:42:59;;;;;;;7.78;6.45;;;;;;;21.47;80.53;99841.28;1708876;84;20984;-75
2021/07/06 01:45:28;;;;;;;6.80;6.20;;;;;;;21.48;80.54;99842.13;1709513;83;20897;-77
2021/07/06 01:47:58;;;;;;;6.50;5.90;;;;;;;21.49;80.48;99843.78;1709089;84;20941;-76
2021/07/06 01:50:27;;;;;;;8.05;6.08;;;;;;;21.51;80.53;99850.58;1708863;84;20901;-76
2021/07/06 01:52:57;;;;;;;8.38;6.50;;;;;;;21.54;80.42;99848.05;1708510;84;21146;-75
2021/07/06 01:55:27;;;;;;;6.92;6.12;;;;;;;21.56;80.33;99850.55;1708649;83;20941;-75
2021/07/06 01:57:55;;;;;;;6.65;5.33;;;;;;;21.58;80.26;99860.02;1708813;83;20909;-74
2021/07/06 02:00:25;;;;;;;6.42;5.25;;;;;;;21.59;80.14;99868.36;1708501;83;20993;-75
2021/07/06 02:02:56;;;;;;;5.85;5.40;;;;;;;21.61;80.07;99866.83;1708834;83;20941;-75
2021/07/06 02:05:31;;;;;;;5.92;5.40;;;;;;;21.61;80.08;99861.02;1681760;84;21135;-76
2021/07/06 02:07:58;;;;;;;6.20;5.40;;;;;;;21.63;80.14;99858.14;1703328;84;21394;-76
2021/07/06 02:10:26;;;;;;;7.62;6.15;;;;;;;21.64;79.95;99859.30;1708907;84;20945;-77
2021/07/06 02:12:53;;;;;;;6.92;5.58;;;;;;;21.66;79.92;99861.28;1708760;84;20989;-77
2021/07/06 02:15:20;;;;;;;7.00;5.55;;;;;;;21.68;79.81;99865.11;1710633;83;21026;-77
2021/07/06 02:17:47;;;;;;;7.20;5.78;;;;;;;21.69;79.80;99868.91;1714461;83;21824;-76
2021/07/06 02:20:17;;;;;;;6.50;5.28;;;;;;;21.72;79.88;99869.90;1714094;83;20869;-78
2021/07/06 02:22:44;;;;;;;8.73;5.92;;;;;;;21.73;79.66;99862.71;1714408;83;20945;-77
2021/07/06 02:25:12;;;;;;;7.33;5.28;;;;;;;21.74;79.64;99856.34;1714117;83;21493;-77
2021/07/06 02:27:40;;;;;;;6.00;4.97;;;;;;;21.75;79.65;99862.02;1714394;83;21058;-77
2021/07/06 02:30:10;;;;;;;8.70;5.50;;;;;;;21.78;79.59;99863.50;1714152;83;21141;-78
2021/07/06 02:32:37;;;;;;;7.60;6.22;;;;;;;21.81;79.47;99861.30;1714285;83;21358;-78
2021/07/06 02:35:06;;;;;;;7.03;6.33;;;;;;;21.81;79.28;99863.97;1714102;83;20988;-77
2021/07/06 02:37:33;;;;;;;7.28;6.15;;;;;;;21.81;79.38;99866.64;1714499;83;21020;-77
2021/07/06 02:40:02;;;;;;;5.60;5.15;;;;;;;21.83;79.19;99867.77;1714319;83;21035;-77
2021/07/06 02:42:29;;;;;;;5.53;5.00;;;;;;;21.85;79.08;99864.41;1714330;83;21183;-78
2021/07/06 02:44:56;;;;;;;7.50;5.35;;;;;;;21.86;79.04;99866.91;1713970;83;20936;-77
2021/07/06 02:47:24;;;;;;;7.05;5.15;;;;;;;21.86;79.06;99868.75;1714183;83;21457;-78
2021/07/06 02:49:51;;;;;;;5.60;4.87;;;;;;;21.87;79.07;99871.22;1714097;83;21012;-77
2021/07/06 02:52:17;;;;;;;6.45;5.72;;;;;;;21.89;78.87;99868.38;1714214;83;21361;-79
2021/07/06 02:54:44;;;;;;;7.75;6.05;;;;;;;21.89;78.85;99871.05;1714127;83;21123;-78
2021/07/06 02:57:33;;;;;;;6.10;5.05;;;;;;;21.89;78.66;99872.37;1714064;83;20944;-78
2021/07/06 02:59:40;;;;;;;6.97;5.12;;;;;;;21.90;78.63;99876.72;1710327;83;20912;-78
2021/07/06 03:02:06;;;;;;;7.47;5.62;;;;;;;21.90;78.43;99872.20;1714024;83;20996;-78
2021/07/06 03:04:33;;;;;;;5.35;4.95;;;;;;;21.90;78.46;99872.72;1714307;83;21017;-76
2021/07/06 03:07:00;;;;;;;5.40;5.00;;;;;;;21.90;78.58;99876.20;1714159;83;21096;-78
2021/07/06 03:09:27;;;;;;;11.00;5.53;;;;;;;21.90;78.35;99880.21;1714310;83;21343;-78
2021/07/06 03:11:55;;;;;;;7.60;5.97;;;;;;;21.89;78.35;99881.20;1714094;83;20976;-78
2021/07/06 03:14:21;;;;;;;6.70;5.42;;;;;;;21.89;78.19;99885.21;1714403;83;20953;-78
2021/07/06 03:16:50;;;;;;;6.30;5.80;;;;;;;21.89;78.34;99877.20;1709139;83;21036;-77
2021/07/06 03:19:18;;;;;;;9.28;5.80;;;;;;;21.91;78.06;99881.86;1708468;84;22039;-77
2021/07/06 03:21:45;;;;;;;6.97;6.37;;;;;;;21.91;77.98;99887.19;1708538;83;21459;-77
2021/07/06 03:24:12;;;;;;;7.15;6.45;;;;;;;21.92;78.01;99884.86;1708814;84;20933;-76
2021/07/06 03:26:38;;;;;;;7.15;6.22;;;;;;;21.91;77.86;99882.37;1708534;84;20900;-77
2021/07/06 03:29:05;;;;;;;7.05;6.35;;;;;;;21.90;77.71;99884.22;1708816;83;20889;-78
2021/07/06 03:31:32;;;;;;;9.78;6.95;;;;;;;21.91;77.68;99883.70;1708506;84;21511;-78
2021/07/06 03:33:59;;;;;;;6.78;5.90;;;;;;;21.91;77.74;99886.37;1708609;83;20897;-77
2021/07/06 03:36:26;;;;;;;10.32;7.62;;;;;;;21.91;77.79;99880.52;1709010;84;20882;-78
2021/07/06 03:38:53;;;;;;;8.03;6.72;;;;;;;21.92;77.64;99880.86;1708570;83;21058;-79
2021/07/06 03:41:20;;;;;;;9.83;6.97;;;;;;;21.96;77.79;99885.81;1708613;84;20944;-77
2021/07/06 03:43:47;;;;;;;8.40;7.60;;;;;;;21.98;77.63;99884.62;1708813;84;21470;-77
2021/07/06 03:46:14;;;;;;;8.70;8.03;;;;;;;21.98;77.37;99887.28;1708641;83;21541;-77
2021/07/06 03:48:41;;;;;;;8.15;7.28;;;;;;;21.98;77.26;99896.63;1708762;83;20995;-77
2021/07/06 03:51:08;;;;;;;8.15;7.15;;;;;;;22.00;77.22;99903.13;1708872;83;20897;-76
2021/07/06 03:53:35;;;;;;;8.83;7.95;;;;;;;22.02;77.30;99903.27;1708660;84;20913;-76
2021/07/06 03:56:02;;;;;;;8.48;7.15;;;;;;;22.03;77.28;99908.95;1708656;84;21515;-76
2021/07/06 03:58:29;;;;;;;8.25;7.47;;;;;;;22.05;77.14;99912.23;1708887;84;21458;-77
2021/07/06 04:00:56;;;;;;;8.55;7.67;;;;;;;22.07;77.15;99906.20;1708693;83;20921;-76
2021/07/06 04:03:25;;;;;;;9.93;8.10;;;;;;;22.11;77.08;99913.34;1708552;84;21022;-77
2021/07/06 04:05:52;;;;;;;9.48;8.50;;;;;;;22.13;76.77;99903.31;1708954;84;21015;-76
2021/07/06 04:08:19;;;;;;;9.63;8.85;;;;;;;22.17;76.72;99899.27;1708841;83;22181;-77
2021/07/06 04:10:46;;;;;;;9.30;8.45;;;;;;;22.23;76.81;99903.91;1708531;83;20893;-78
2021/07/06 04:13:13;;;;;;;9.70;8.85;;;;;;;22.30;76.56;99901.32;1709026;84;21538;-78
2021/07/06 04:15:40;;;;;;;9.70;7.87;;;;;;;22.37;76.35;99896.88;1710203;83;20979;-79
2021/07/06 04:18:07;;;;;;;8.93;8.18;;;;;;;22.45;76.06;99889.25;1714236;83;20897;-79
2021/07/06 04:20:35;;;;;;;9.00;8.23;;;;;;;22.52;75.80;99887.48;1714267;83;21556;-78
2021/07/06 04:23:02;;;;;;;9.23;8.25;;;;;;;22.55;75.57;99895.96;1714160;83;20952;-79
2021/07/06 04:25:31;;;;;;;9.83;8.88;;;;;;;22.58;75.45;99889.92;1714194;83;20872;-80
2021/07/06 04:27:58;;;;;;;9.43;8.68;;;;;;;22.59;75.33;99885.73;1714130;83;20908;-80
2021/07/06 04:30:25;;;;;;;11.53;8.20;;;;;;;22.61;75.22;99885.52;1714539;83;21041;-81
2021/07/06 04:32:52;;;;;;;9.58;8.78;;;;;;;22.62;75.13;99897.38;1714152;83;21159;-78
2021/07/06 04:35:22;;;;;;;9.13;8.33;;;;;;;22.61;75.08;99894.39;1714353;83;20908;-77
2021/07/06 04:37:49;;;;;;;10.50;9.58;;;;;;;22.61;75.06;99891.72;1714185;83;20944;-77
2021/07/06 04:40:17;;;;;;;12.23;8.98;;;;;;;22.65;75.09;99889.48;1714146;83;20980;-79
2021/07/06 04:42:43;;;;;;;10.43;9.48;;;;;;;22.68;74.88;99896.63;1714280;83;20972;-78
2021/07/06 04:45:12;;;;;;;11.83;9.30;;;;;;;22.71;74.60;99892.74;1714109;83;21965;-77
2021/07/06 04:47:40;;;;;;;10.90;9.90;;;;;;;22.73;74.66;99898.22;1714085;83;21477;-78
2021/07/06 04:50:11;;;;;;;10.70;9.78;;;;;;;22.74;74.54;99901.23;1714244;83;20904;-78
2021/07/06 04:52:43;;;;;;;10.55;8.90;;;;;;;22.74;74.48;99903.90;1714524;83;21371;-79
2021/07/06 04:55:08;;;;;;;11.35;10.25;;;;;;;22.74;74.14;99906.57;1713732;83;20869;-78
2021/07/06 04:57:34;;;;;;;10.95;9.78;;;;;;;22.75;74.32;99910.89;1714517;83;21467;-78
2021/07/06 05:00:03;;;;;;;11.83;10.13;;;;;;;22.79;74.10;99907.82;1714284;83;20980;-78
2021/07/06 05:02:30;;;;;;;11.35;10.35;;;;;;;22.80;73.82;99914.33;1714447;83;21019;-76
2021/07/06 05:04:57;;;;;;;10.82;9.83;;;;;;;22.83;73.85;99910.44;1714028;83;20913;-75
2021/07/06 05:07:24;;;;;;;12.10;10.95;;;;;;;22.87;73.85;99925.91;1714497;83;20952;-77
2021/07/06 05:09:51;;;;;;;11.28;9.68;;;;;;;22.89;73.64;99922.55;1714093;83;21995;-78
2021/07/06 05:12:18;;;;;;;10.60;9.70;;;;;;;22.91;73.68;99920.52;1714379;83;21354;-79
2021/07/06 05:14:45;;;;;;;11.05;9.95;;;;;;;22.97;73.67;99912.25;1714071;83;20913;-76
2021/07/06 05:17:12;;;;;;;11.35;9.60;;;;;;;23.04;73.51;99907.00;1709972;83;20917;-76
2021/07/06 05:19:39;;;;;;;10.30;9.35;;;;;;;23.10;73.20;99911.56;1708651;83;20909;-76
2021/07/06 05:22:05;;;;;;;9.28;8.28;;;;;;;23.15;72.89;99914.00;1708968;83;21884;-76
2021/07/06 05:24:32;;;;;;;9.90;9.20;;;;;;;23.19;72.57;99919.80;1708531;83;20893;-77
2021/07/06 05:27:00;;;;;;;10.88;9.88;;;;;;;23.22;72.52;99922.60;1708483;84;21031;-75
2021/07/06 05:29:26;;;;;;;9.98;9.08;;;;;;;23.24;72.21;99921.39;1708745;83;21398;-77
2021/07/06 05:31:53;;;;;;;9.93;9.03;;;;;;;23.23;72.00;99918.38;1708786;84;20909;-75
2021/07/06 05:34:20;;;;;;;9.50;8.80;;;;;;;23.26;72.18;99922.54;1708499;83;21852;-76
2021/07/06 05:36:50;;;;;;;10.95;9.43;;;;;;;23.25;71.63;99925.70;1708538;83;21350;-75
2021/07/06 05:39:16;;;;;;;8.75;7.75;;;;;;;23.24;71.50;99925.40;1708579;84;20913;-75
2021/07/06 05:41:43;;;;;;;9.38;8.68;;;;;;;23.24;71.59;99928.59;1708808;83;20961;-78
2021/07/06 05:44:11;;;;;;;11.48;8.80;;;;;;;23.23;71.50;99928.26;1708497;83;21481;-76
2021/07/06 05:46:39;;;;;;;10.28;8.08;;;;;;;23.21;71.56;99928.95;1708405;84;21164;-76
2021/07/06 05:49:05;;;;;;;9.93;8.90;;;;;;;23.21;71.54;99928.95;1708643;84;20990;-76
2021/07/06 05:51:32;;;;;;;9.60;8.35;;;;;;;23.38;71.64;99933.84;1708914;84;20980;-75
2021/07/06 05:53:59;;;;;;;8.00;7.22;;;;;;;23.67;71.61;99926.67;1708540;84;20957;-74
2021/07/06 05:56:26;;;;;;;9.88;9.00;;;;;;;24.16;70.32;99928.98;1708535;83;20854;-73
2021/07/06 05:58:53;;;;;;;9.28;7.55;;;;;;;24.52;68.99;99934.64;1708533;84;21183;-78
2021/07/06 06:01:20;;;;;;;20.02;18.23;;;;;;;24.82;68.23;99940.01;1708375;83;20992;-77
2021/07/06 06:03:47;;;;;;;10.43;7.58;;;;;;;25.08;67.39;99941.12;1708550;84;20898;-75
2021/07/06 06:06:14;;;;;;;8.58;7.37;;;;;;;25.31;66.40;99935.39;1708436;84;20941;-77
2021/07/06 06:08:43;;;;;;;8.73;6.85;;;;;;;25.48;65.32;99938.50;1708580;83;20957;-78
2021/07/06 06:11:10;;;;;;;7.85;6.80;;;;;;;25.63;64.85;99939.13;1708618;84;22117;-76
2021/07/06 06:13:37;;;;;;;6.60;6.08;;;;;;;25.71;64.29;99933.23;1708453;84;20882;-76
2021/07/06 06:16:04;;;;;;;6.92;6.40;;;;;;;25.74;63.61;99944.88;1709137;83;21442;-77
2021/07/06 06:18:31;;;;;;;9.13;6.67;;;;;;;25.80;63.48;99937.34;1714049;83;20952;-76
2021/07/06 06:20:59;;;;;;;7.03;6.42;;;;;;;25.84;62.91;99943.44;1714056;83;20869;-76
2021/07/06 06:23:25;;;;;;;8.35;7.53;;;;;;;25.85;62.51;99946.41;1714130;83;21523;-79
2021/07/06 06:25:52;;;;;;;6.78;6.17;;;;;;;25.81;62.65;99950.58;1714008;83;20992;-78
2021/07/06 06:28:19;;;;;;;9.45;7.00;;;;;;;25.79;62.88;99952.64;1713948;83;21003;-79
2021/07/06 06:30:46;;;;;;;6.37;5.72;;;;;;;25.73;63.00;99952.65;1714095;83;20885;-77
2021/07/06 06:33:12;;;;;;;6.80;5.95;;;;;;;25.63;62.81;99957.08;1714064;83;20984;-78
2021/07/06 06:35:41;;;;;;;9.23;6.10;;;;;;;25.52;63.07;99950.98;1714080;83;21793;-75
2021/07/06 06:38:08;;;;;;;6.72;5.92;;;;;;;25.39;63.14;99961.19;1714113;83;20865;-77
2021/07/06 06:40:35;;;;;;;7.30;6.12;;;;;;;25.21;63.34;99957.27;1714099;83;20944;-78
2021/07/06 06:43:02;;;;;;;6.22;5.72;;;;;;;25.06;63.80;99958.42;1714185;83;21035;-77
2021/07/06 06:45:31;;;;;;;6.67;6.08;;;;;;;24.90;64.23;99960.48;1714280;83;20885;-77
2021/07/06 06:47:59;;;;;;;7.33;6.75;;;;;;;24.79;64.76;99959.72;1714070;83;21551;-75
2021/07/06 06:50:27;;;;;;;6.95;6.25;;;;;;;24.71;65.04;99961.23;1713841;83;20909;-77
2021/07/06 06:52:54;;;;;;;8.35;7.72;;;;;;;24.61;65.40;99953.54;1714222;83;20924;-76
2021/07/06 06:55:21;;;;;;;8.93;8.05;;;;;;;24.55;65.71;99961.06;1714271;83;21549;-76
2021/07/06 06:57:50;;;;;;;9.23;7.22;;;;;;;24.52;65.89;99956.08;1714249;83;20865;-75
2021/07/06 07:00:17;;;;;;;7.78;6.95;;;;;;;24.49;65.99;99951.13;1714298;83;21119;-74
2021/07/06 07:02:44;;;;;;;8.53;7.72;;;;;;;24.55;66.07;99957.05;1714072;83;21070;-76
2021/07/06 07:05:12;;;;;;;7.60;6.92;;;;;;;24.58;66.02;99957.45;1714393;83;21004;-75
2021/07/06 07:07:39;;;;;;;8.88;7.03;;;;;;;24.63;65.82;99960.88;1713960;83;20909;-80
2021/07/06 07:10:07;;;;;;;9.08;7.75;;;;;;;24.71;66.21;99959.37;1714429;83;20899;-78
2021/07/06 07:12:35;;;;;;;7.47;6.87;;;;;;;24.82;65.84;99962.81;1714116;83;21166;-78
2021/07/06 07:15:05;;;;;;;8.30;7.50;;;;;;;25.00;65.41;99954.71;1713974;83;20968;-78
2021/07/06 07:17:32;;;;;;;8.03;7.30;;;;;;;25.29;64.93;99952.73;1715825;83;20952;-77
2021/07/06 07:19:59;;;;;;;8.50;7.65;;;;;;;25.67;64.06;99954.81;1717221;83;20877;-69
2021/07/06 07:22:26;;;;;;;9.43;7.15;;;;;;;25.98;63.14;99954.19;1717165;83;21365;-69
2021/07/06 07:24:53;;;;;;;11.12;7.30;;;;;;;26.16;62.03;99950.31;1717047;83;22006;-70
2021/07/06 07:27:20;;;;;;;9.88;6.83;;;;;;;26.46;61.42;99956.03;1717001;83;20897;-69
2021/07/06 07:31:43;;;;;;;6.60;6.00;;;;;;;27.00;59.94;99949.90;1797810;79;22639;-71
2021/07/06 07:34:10;;;;;;;8.25;6.00;;;;;;;27.08;58.91;99958.25;1758558;80;21544;-73
2021/07/06 07:36:38;;;;;;;7.22;6.58;;;;;;;27.06;58.85;99953.61;1758250;80;21205;-72
2021/07/06 07:39:05;;;;;;;7.53;6.78;;;;;;;26.98;58.69;99964.09;1758205;80;20919;-73
2021/07/06 07:41:32;;;;;;;6.87;6.28;;;;;;;26.91;58.70;99962.48;1758299;80;20900;-70
2021/07/06 07:43:59;;;;;;;10.10;5.67;;;;;;;26.91;58.94;99966.00;1758278;80;20999;-70
2021/07/06 07:46:27;;;;;;;9.15;4.95;;;;;;;26.96;59.38;99972.08;1758580;81;21453;-71
2021/07/06 07:48:53;;;;;;;19.25;6.60;;;;;;;27.05;58.40;99970.25;1759759;81;21519;-72
2021/07/06 07:51:22;;;;;;;6.67;5.75;;;;;;;27.12;58.66;99967.52;1758186;80;20924;-71
2021/07/06 07:53:49;;;;;;;5.78;5.00;;;;;;;27.31;58.23;99968.48;1758466;80;20908;-71
2021/07/06 07:56:16;;;;;;;7.55;4.47;;;;;;;27.36;57.66;99967.82;1758472;81;20932;-73
2021/07/06 07:58:42;;;;;;;6.45;5.70;;;;;;;27.33;56.82;99973.13;1758197;80;20952;-72
2021/07/06 08:01:10;;;;;;;5.40;4.92;;;;;;;27.23;57.16;99974.11;1758270;80;21527;-72
2021/07/06 08:03:38;;;;;;;5.35;4.53;;;;;;;27.28;57.44;99976.47;1758261;80;21301;-72
2021/07/06 08:06:05;;;;;;;4.62;4.28;;;;;;;27.61;57.02;99979.42;1758183;80;20869;-79
2021/07/06 08:08:32;;;;;;;6.90;4.40;;;;;;;27.75;56.43;99984.20;1758269;80;20975;-74
2021/07/06 08:11:01;;;;;;;4.60;4.15;;;;;;;27.88;56.14;99982.77;1758194;80;20987;-73
2021/07/06 08:13:32;;;;;;;5.05;4.00;;;;;;;27.86;55.79;99977.30;1758236;80;21203;-73
2021/07/06 08:15:59;;;;;;;3.95;3.60;;;;;;;27.88;55.97;99983.27;1758288;80;20860;-73
2021/07/06 08:18:26;;;;;;;4.37;3.40;;;;;;;27.83;55.62;99977.69;1758317;81;20868;-74
2021/07/06 08:20:53;;;;;;;4.15;3.65;;;;;;;27.79;55.61;99984.56;1758145;80;20943;-73
2021/07/06 08:23:21;;;;;;;6.35;4.80;;;;;;;27.86;55.93;99982.69;1758308;80;20983;-74
2021/07/06 08:25:48;;;;;;;5.28;4.45;;;;;;;27.81;56.32;99990.02;1758245;80;21128;-74
2021/07/06 08:28:15;;;;;;;3.67;3.17;;;;;;;27.77;56.36;99983.95;1758221;80;20898;-75
2021/07/06 08:30:43;;;;;;;8.58;4.28;;;;;;;27.66;56.13;99983.64;1751925;80;20975;-74
2021/07/06 08:33:09;;;;;;;5.00;4.12;;;;;;;27.51;56.50;99985.84;1745165;81;21524;-73
2021/07/06 08:35:36;;;;;;;3.35;3.05;;;;;;;27.42;57.02;99989.31;1745127;81;20857;-73
2021/07/06 08:38:04;;;;;;;6.47;3.30;;;;;;;27.36;57.08;99986.14;1745265;80;21106;-74
2021/07/06 08:40:31;;;;;;;7.25;3.40;;;;;;;27.32;57.08;99986.80;1745154;81;21505;-74
2021/07/06 08:43:00;;;;;;;4.37;3.40;;;;;;;27.27;57.59;99989.61;1744599;82;20885;-74
2021/07/06 08:45:27;;;;;;;3.87;3.00;;;;;;;27.28;57.82;99976.47;1734589;82;21427;-74
2021/07/06 08:47:54;;;;;;;5.10;3.05;;;;;;;27.35;57.59;99986.37;1744749;81;20885;-74
2021/07/06 08:50:21;;;;;;;4.33;3.40;;;;;;;27.42;57.38;99977.20;1744828;81;21108;-75
2021/07/06 08:52:48;;;;;;;4.72;3.45;;;;;;;27.54;57.35;99982.69;1744328;81;20885;-77
2021/07/06 08:55:16;;;;;;;4.62;3.65;;;;;;;27.77;57.13;99981.27;1744578;81;20893;-73
2021/07/06 08:57:43;;;;;;;4.40;2.92;;;;;;;28.02;56.27;99976.72;1744566;81;21450;-74
2021/07/06 09:00:13;;;;;;;6.33;3.67;;;;;;;28.13;55.66;99987.30;1744826;80;20916;-74
2021/07/06 09:02:41;;;;;;;6.28;3.52;;;;;;;28.17;55.02;99970.13;1744651;81;21136;-74
2021/07/06 09:05:20;;;;;;;8.85;4.33;;;;;;;28.22;55.04;99977.86;1734133;82;20904;-74
2021/07/06 09:07:48;;;;;;;5.33;4.28;;;;;;;28.48;55.10;99973.23;1742620;81;21313;-75
2021/07/06 09:10:21;;;;;;;6.62;4.28;;;;;;;28.67;53.69;99960.56;1744215;81;20940;-75
2021/07/06 09:12:48;;;;;;;10.45;4.03;;;;;;;28.73;53.38;99973.97;1744576;81;21004;-76
2021/07/06 09:15:27;;;;;;;9.45;4.53;;;;;;;28.71;52.65;99978.77;1744568;81;21980;-76
2021/07/06 09:18:14;;;;;;;6.62;3.70;;;;;;;28.63;52.86;99972.32;1744497;81;21027;-77
2021/07/06 09:20:44;;;;;;;4.85;4.28;;;;;;;28.45;53.46;99983.92;1744841;81;20874;-79
2021/07/06 09:23:27;;;;;;;7.87;3.70;;;;;;;28.31;54.25;99985.13;1744526;81;20970;-74
2021/07/06 09:26:12;;;;;;;;;;;;;;;28.17;54.60;99975.52;1746548;81;21565;-79
2021/07/06 09:28:45;;;;;;;6.50;3.95;;;;;;;28.04;55.06;99989.45;1745432;81;21136;-80
2021/07/06 09:31:32;;;;;;;6.05;4.10;;;;;;;28.01;55.62;99987.18;1751995;80;21468;-77
2021/07/06 09:34:03;;;;;;;4.30;4.00;;;;;;;28.03;54.75;99984.27;1757964;81;20919;-75
2021/07/06 09:36:47;;;;;;;4.65;4.20;;;;;;;27.97;55.11;99983.30;1758084;80;21002;-75
2021/07/06 09:39:24;;;;;;;5.22;4.78;;;;;;;27.94;54.88;99984.27;1758150;81;20889;-77
2021/07/06 09:42:10;;;;;;;7.33;4.58;;;;;;;27.85;54.74;99989.11;1758127;80;21523;-75
2021/07/06 09:44:37;;;;;;;8.23;4.50;;;;;;;27.74;54.70;99982.53;1757684;81;20853;-75
2021/07/06 09:47:08;;;;;;;9.58;4.60;;;;;;;27.64;55.12;100000.55;1757929;81;20987;-76
2021/07/06 09:49:54;;;;;;;7.90;4.90;;;;;;;27.56;54.90;99991.91;1757772;81;20927;-75
2021/07/06 09:52:22;;;;;;;7.62;4.65;;;;;;;27.68;55.19;99995.03;1757172;80;20853;-76
2021/07/06 09:54:52;;;;;;;8.18;5.12;;;;;;;27.87;54.78;99994.58;1757914;80;21108;-74
2021/07/06 09:57:32;;;;;;;5.40;4.90;;;;;;;28.04;54.75;99994.84;1756656;80;20889;-75
2021/07/06 10:00:10;;;;;;;7.72;5.17;;;;;;;28.18;54.10;99999.57;1757982;80;20990;-74
2021/07/06 10:02:41;;;;;;;6.33;4.30;;;;;;;28.22;53.79;100007.52;1758019;81;21335;-77
2021/07/06 10:05:17;;;;;;;4.90;4.50;;;;;;;28.17;53.50;100006.03;1757611;81;20892;-76
2021/07/06 10:07:44;;;;;;;4.05;3.70;;;;;;;28.08;53.47;100008.69;1758229;81;21112;-77
2021/07/06 10:10:13;;;;;;;4.30;4.00;;;;;;;27.97;53.76;100013.45;1757621;81;20971;-74
2021/07/06 10:12:44;;;;;;;7.67;4.45;;;;;;;27.86;54.39;100010.98;1779923;80;21292;-77
2021/07/06 10:15:17;;;;;;;6.45;4.40;;;;;;;27.74;54.79;100017.56;1790134;80;20852;-76
2021/07/06 10:17:44;;;;;;;4.12;3.92;;;;;;;27.62;55.01;100021.49;1789221;80;20912;-77
2021/07/06 10:20:13;;;;;;;6.12;5.15;;;;;;;27.47;55.27;100029.06;1789689;80;21505;-76
2021/07/06 10:22:40;;;;;;;5.42;4.40;;;;;;;27.36;55.73;100037.30;1789927;78;20943;-76
2021/07/06 10:25:09;;;;;;;4.62;4.22;;;;;;;27.30;56.16;100035.47;1789805;79;20903;-73
2021/07/06 10:27:45;;;;;;;6.80;4.53;;;;;;;27.24;56.37;100040.39;1789795;80;21563;-76
2021/07/06 10:30:19;;;;;;;5.33;3.95;;;;;;;27.20;56.18;100040.48;1789919;80;20887;-75
2021/07/06 10:32:50;;;;;;;;;;;;;;;27.27;56.62;100038.61;1789552;79;21809;-75
2021/07/06 10:35:16;;;;;;;5.33;3.72;;;;;;;27.39;56.77;100038.73;1786933;79;20082;-78
2021/07/06 10:37:43;;;;;;;7.47;4.42;;;;;;;27.44;56.75;100046.48;1786981;80;20951;-75
2021/07/06 10:40:23;;;;;;;5.83;3.90;;;;;;;27.58;56.02;100044.52;1787128;79;20927;-74
2021/07/06 10:42:52;;;;;;;5.25;4.75;;;;;;;27.67;55.84;100039.70;1787347;80;20903;-74
2021/07/06 10:45:23;;;;;;;4.42;4.05;;;;;;;27.90;55.58;100045.36;1787363;79;21143;-73
2021/07/06 10:47:54;;;;;;;4.72;4.25;;;;;;;28.05;55.78;100047.70;1787012;80;21392;-75
2021/07/06 10:50:36;;;;;;;8.08;4.22;;;;;;;28.29;55.30;100042.52;1786920;80;20951;-77
2021/07/06 10:53:22;;;;;;;4.58;3.95;;;;;;;28.47;54.04;100036.31;1786651;80;20920;-74
2021/07/06 10:56:08;;;;;;;5.30;3.92;;;;;;;28.52;54.16;100049.97;1786604;80;21377;-75
2021/07/06 10:59:01;;;;;;;5.97;4.15;;;;;;;28.50;53.60;100040.77;1786649;80;21145;-74
2021/07/06 11:01:46;;;;;;;8.85;4.58;;;;;;;28.45;54.06;100044.61;1786043;80;20924;-73
2021/07/06 11:04:47;;;;;;;6.17;3.50;;;;;;;28.46;54.26;100038.72;1786974;80;21376;-72
2021/07/06 11:07:17;;;;;;;5.78;4.28;;;;;;;28.41;54.24;100036.66;1766104;80;21377;-72
2021/07/06 11:09:55;;;;;;;6.55;3.98;;;;;;;28.33;54.26;100048.30;1782686;79;20923;-72
2021/07/06 11:12:24;;;;;;;5.83;3.75;;;;;;;28.29;54.54;100046.55;1787138;79;21103;-72
2021/07/06 11:14:58;;;;;;;4.67;4.22;;;;;;;28.35;54.62;100040.78;1787110;80;20974;-72
2021/07/06 11:17:47;;;;;;;12.68;4.87;;;;;;;28.33;53.77;100038.86;1786180;80;20883;-72
2021/07/06 11:20:20;;;;;;;8.60;4.58;;;;;;;28.27;53.46;100039.21;1786899;80;20895;-73
2021/07/06 11:22:56;;;;;;;8.08;4.17;;;;;;;28.19;53.53;100051.13;1785367;80;20963;-72
2021/07/06 11:25:37;;;;;;;6.65;4.47;;;;;;;28.13;53.37;100046.61;1786728;80;21488;-71
2021/07/06 11:28:27;;;;;;;7.80;4.12;;;;;;;28.09;53.34;100044.87;1786608;79;20919;-76
2021/07/06 11:31:01;;;;;;;4.60;4.20;;;;;;;27.97;53.75;100042.61;1786631;80;21519;-76
2021/07/06 11:33:40;;;;;;;7.67;4.10;;;;;;;27.81;54.14;100046.62;1786740;80;20928;-72
2021/07/06 11:36:09;;;;;;;7.30;3.87;;;;;;;27.68;54.55;100049.41;1787173;80;20883;-70
2021/07/06 11:38:43;;;;;;;4.92;3.90;;;;;;;27.53;55.01;100057.83;1785336;80;21154;-74
2021/07/06 11:41:12;;;;;;;9.25;4.15;;;;;;;27.44;55.26;100063.17;1786791;80;21071;-76
2021/07/06 11:43:39;;;;;;;13.93;5.87;;;;;;;27.37;55.29;100067.75;1786546;80;20930;-76